Terminal Aerodrome Forecast
Issued by NWS

Home | Current Version | Previous Version | Graphics & Text | Print | Product List | Glossary On
Versions: 1 2 3 4 5 6 7 8 9 10 11 12 13 14 15 16 17 18 19 20 21 22 23
000
FTUS43 KBIS 202334
TAFDIK
TAF
KDIK 202334Z 2100/2124 VRB04KT P6SM SKC
     FM210800 14005KT 3SM BR FEW020
     FM211100 14007KT 1/2SM FG SCT008
     FM211400 15008KT 1SM BR SCT008
     FM211600 16011KT 6SM BR SCT050
     FM212100 16010KT P6SM SCT150=

USA.gov is the U.S. government's official web portal to all federal, state and local government web resources and services.